sensor_id;sensor_type;location;lat;lon;timestamp;P1;durP1;ratioP1;P2;durP2;ratioP2
26820;SDS011;37186;51.394;5.454;2023-02-19T00:02:46;3.33;;;3.23;;
26820;SDS011;37186;51.394;5.454;2023-02-19T00:05:46;3.27;;;3.17;;
26820;SDS011;37186;51.394;5.454;2023-02-19T00:08:47;3.10;;;3.00;;
26820;SDS011;37186;51.394;5.454;2023-02-19T00:11:48;3.40;;;3.30;;
26820;SDS011;37186;51.394;5.454;2023-02-19T00:14:48;3.40;;;3.30;;
26820;SDS011;37186;51.394;5.454;2023-02-19T00:17:49;3.27;;;3.17;;
26820;SDS011;37186;51.394;5.454;2023-02-19T00:20:49;3.33;;;3.23;;
26820;SDS011;37186;51.394;5.454;2023-02-19T00:23:51;3.40;;;3.30;;
26820;SDS011;37186;51.394;5.454;2023-02-19T00:26:52;3.33;;;3.23;;
26820;SDS011;37186;51.394;5.454;2023-02-19T00:29:53;3.40;;;3.30;;
26820;SDS011;37186;51.394;5.454;2023-02-19T00:32:53;3.30;;;3.20;;
26820;SDS011;37186;51.394;5.454;2023-02-19T00:35:54;3.43;;;3.33;;
26820;SDS011;37186;51.394;5.454;2023-02-19T00:38:59;3.57;;;3.47;;
26820;SDS011;37186;51.394;5.454;2023-02-19T00:41:59;3.50;;;3.40;;
26820;SDS011;37186;51.394;5.454;2023-02-19T00:45:00;3.47;;;3.37;;
26820;SDS011;37186;51.394;5.454;2023-02-19T00:48:00;3.50;;;3.40;;
26820;SDS011;37186;51.394;5.454;2023-02-19T00:51:01;3.50;;;3.40;;
26820;SDS011;37186;51.394;5.454;2023-02-19T00:54:02;3.70;;;3.60;;
26820;SDS011;37186;51.394;5.454;2023-02-19T00:57:04;3.43;;;3.33;;
26820;SDS011;37186;51.394;5.454;2023-02-19T01:00:05;3.53;;;3.43;;
26820;SDS011;37186;51.394;5.454;2023-02-19T01:03:06;3.60;;;3.50;;
26820;SDS011;37186;51.394;5.454;2023-02-19T01:06:07;3.40;;;3.30;;
26820;SDS011;37186;51.394;5.454;2023-02-19T01:09:09;3.33;;;3.23;;
26820;SDS011;37186;51.394;5.454;2023-02-19T01:12:10;3.50;;;3.40;;
26820;SDS011;37186;51.394;5.454;2023-02-19T01:15:10;3.23;;;3.13;;
26820;SDS011;37186;51.394;5.454;2023-02-19T01:18:11;3.40;;;3.30;;
26820;SDS011;37186;51.394;5.454;2023-02-19T01:21:12;3.23;;;3.13;;
26820;SDS011;37186;51.394;5.454;2023-02-19T01:24:18;3.23;;;3.13;;
26820;SDS011;37186;51.394;5.454;2023-02-19T01:27:18;3.27;;;3.17;;
26820;SDS011;37186;51.394;5.454;2023-02-19T01:30:19;3.30;;;3.20;;
26820;SDS011;37186;51.394;5.454;2023-02-19T01:33:19;3.17;;;3.07;;
26820;SDS011;37186;51.394;5.454;2023-02-19T01:36:20;3.10;;;3.00;;
26820;SDS011;37186;51.394;5.454;2023-02-19T01:39:21;3.13;;;3.03;;
26820;SDS011;37186;51.394;5.454;2023-02-19T01:42:21;3.30;;;3.20;;
26820;SDS011;37186;51.394;5.454;2023-02-19T01:51:34;3.07;;;2.97;;
26820;SDS011;37186;51.394;5.454;2023-02-19T01:54:38;3.00;;;2.90;;
26820;SDS011;37186;51.394;5.454;2023-02-19T01:57:42;3.00;;;2.90;;
26820;SDS011;37186;51.394;5.454;2023-02-19T02:00:46;3.00;;;2.90;;
26820;SDS011;37186;51.394;5.454;2023-02-19T02:03:46;2.93;;;2.83;;
26820;SDS011;37186;51.394;5.454;2023-02-19T02:06:52;3.20;;;3.10;;
26820;SDS011;37186;51.394;5.454;2023-02-19T02:09:55;3.07;;;2.97;;
26820;SDS011;37186;51.394;5.454;2023-02-19T02:13:15;3.07;;;2.97;;
26820;SDS011;37186;51.394;5.454;2023-02-19T02:19:55;2.90;;;2.80;;
26820;SDS011;37186;51.394;5.454;2023-02-19T02:26:21;3.30;;;3.20;;
26820;SDS011;37186;51.394;5.454;2023-02-19T02:36:06;3.03;;;2.93;;
26820;SDS011;37186;51.394;5.454;2023-02-19T02:39:12;2.97;;;2.87;;
26820;SDS011;37186;51.394;5.454;2023-02-19T02:42:16;3.17;;;3.07;;
26820;SDS011;37186;51.394;5.454;2023-02-19T02:45:29;3.17;;;3.07;;
26820;SDS011;37186;51.394;5.454;2023-02-19T02:51:57;3.03;;;2.93;;
26820;SDS011;37186;51.394;5.454;2023-02-19T02:55:20;3.27;;;3.17;;
26820;SDS011;37186;51.394;5.454;2023-02-19T02:58:22;3.10;;;3.00;;
26820;SDS011;37186;51.394;5.454;2023-02-19T03:01:28;3.10;;;3.00;;
26820;SDS011;37186;51.394;5.454;2023-02-19T03:04:54;3.00;;;2.90;;
26820;SDS011;37186;51.394;5.454;2023-02-19T03:08:28;3.30;;;3.20;;
26820;SDS011;37186;51.394;5.454;2023-02-19T03:11:33;3.10;;;3.00;;
26820;SDS011;37186;51.394;5.454;2023-02-19T03:14:54;3.10;;;3.00;;
26820;SDS011;37186;51.394;5.454;2023-02-19T03:18:18;3.30;;;3.20;;
26820;SDS011;37186;51.394;5.454;2023-02-19T03:21:40;3.37;;;3.27;;
26820;SDS011;37186;51.394;5.454;2023-02-19T03:24:44;3.20;;;3.10;;
26820;SDS011;37186;51.394;5.454;2023-02-19T03:28:12;3.40;;;3.30;;
26820;SDS011;37186;51.394;5.454;2023-02-19T03:31:17;3.20;;;3.10;;
26820;SDS011;37186;51.394;5.454;2023-02-19T03:34:23;3.20;;;3.10;;
26820;SDS011;37186;51.394;5.454;2023-02-19T03:37:37;3.27;;;3.17;;
26820;SDS011;37186;51.394;5.454;2023-02-19T03:40:46;3.27;;;3.17;;
26820;SDS011;37186;51.394;5.454;2023-02-19T03:47:24;3.30;;;3.20;;
26820;SDS011;37186;51.394;5.454;2023-02-19T03:50:31;3.50;;;3.40;;
26820;SDS011;37186;51.394;5.454;2023-02-19T03:54:03;3.50;;;3.40;;
26820;SDS011;37186;51.394;5.454;2023-02-19T03:57:16;3.50;;;3.40;;
26820;SDS011;37186;51.394;5.454;2023-02-19T04:04:14;3.20;;;3.10;;
26820;SDS011;37186;51.394;5.454;2023-02-19T04:07:26;3.53;;;3.43;;
26820;SDS011;37186;51.394;5.454;2023-02-19T04:10:31;3.40;;;3.30;;
26820;SDS011;37186;51.394;5.454;2023-02-19T04:13:41;3.70;;;3.60;;
26820;SDS011;37186;51.394;5.454;2023-02-19T04:16:50;3.57;;;3.47;;
26820;SDS011;37186;51.394;5.454;2023-02-19T04:19:54;3.57;;;3.47;;
26820;SDS011;37186;51.394;5.454;2023-02-19T04:22:57;3.57;;;3.47;;
26820;SDS011;37186;51.394;5.454;2023-02-19T04:25:58;3.70;;;3.60;;
26820;SDS011;37186;51.394;5.454;2023-02-19T04:29:00;3.70;;;3.60;;
26820;SDS011;37186;51.394;5.454;2023-02-19T04:32:01;3.63;;;3.53;;
26820;SDS011;37186;51.394;5.454;2023-02-19T04:35:02;3.80;;;3.70;;
26820;SDS011;37186;51.394;5.454;2023-02-19T04:38:02;3.63;;;3.53;;
26820;SDS011;37186;51.394;5.454;2023-02-19T04:41:03;3.67;;;3.57;;
26820;SDS011;37186;51.394;5.454;2023-02-19T04:44:04;3.73;;;3.63;;
26820;SDS011;37186;51.394;5.454;2023-02-19T04:47:04;3.60;;;3.50;;
26820;SDS011;37186;51.394;5.454;2023-02-19T04:50:05;3.60;;;3.50;;
26820;SDS011;37186;51.394;5.454;2023-02-19T04:53:06;3.63;;;3.53;;
26820;SDS011;37186;51.394;5.454;2023-02-19T04:56:08;3.57;;;3.47;;
26820;SDS011;37186;51.394;5.454;2023-02-19T04:59:11;3.53;;;3.43;;
26820;SDS011;37186;51.394;5.454;2023-02-19T05:02:12;3.53;;;3.43;;
26820;SDS011;37186;51.394;5.454;2023-02-19T05:05:12;3.60;;;3.50;;
26820;SDS011;37186;51.394;5.454;2023-02-19T05:08:13;3.60;;;3.50;;
26820;SDS011;37186;51.394;5.454;2023-02-19T05:11:13;3.57;;;3.47;;
26820;SDS011;37186;51.394;5.454;2023-02-19T05:14:14;3.47;;;3.37;;
26820;SDS011;37186;51.394;5.454;2023-02-19T05:17:16;3.60;;;3.50;;
26820;SDS011;37186;51.394;5.454;2023-02-19T05:20:16;3.80;;;3.70;;
26820;SDS011;37186;51.394;5.454;2023-02-19T05:23:17;3.37;;;3.27;;
26820;SDS011;37186;51.394;5.454;2023-02-19T05:26:20;3.53;;;3.43;;
26820;SDS011;37186;51.394;5.454;2023-02-19T05:29:22;3.43;;;3.33;;
26820;SDS011;37186;51.394;5.454;2023-02-19T05:32:22;3.57;;;3.47;;
26820;SDS011;37186;51.394;5.454;2023-02-19T05:35:23;3.63;;;3.53;;
26820;SDS011;37186;51.394;5.454;2023-02-19T05:38:23;3.60;;;3.50;;
26820;SDS011;37186;51.394;5.454;2023-02-19T05:41:25;3.40;;;3.30;;
26820;SDS011;37186;51.394;5.454;2023-02-19T05:44:26;3.60;;;3.50;;
26820;SDS011;37186;51.394;5.454;2023-02-19T05:47:27;3.50;;;3.40;;
26820;SDS011;37186;51.394;5.454;2023-02-19T05:50:28;3.50;;;3.40;;
26820;SDS011;37186;51.394;5.454;2023-02-19T05:53:29;3.67;;;3.57;;
26820;SDS011;37186;51.394;5.454;2023-02-19T05:59:33;3.53;;;3.43;;
26820;SDS011;37186;51.394;5.454;2023-02-19T06:02:34;3.60;;;3.50;;
26820;SDS011;37186;51.394;5.454;2023-02-19T06:05:36;3.40;;;3.30;;
26820;SDS011;37186;51.394;5.454;2023-02-19T06:08:37;3.17;;;3.07;;
26820;SDS011;37186;51.394;5.454;2023-02-19T06:11:37;3.37;;;3.27;;
26820;SDS011;37186;51.394;5.454;2023-02-19T06:14:39;3.40;;;3.30;;
26820;SDS011;37186;51.394;5.454;2023-02-19T06:17:39;3.63;;;3.53;;
26820;SDS011;37186;51.394;5.454;2023-02-19T06:20:40;3.47;;;3.37;;
26820;SDS011;37186;51.394;5.454;2023-02-19T06:23:40;3.23;;;3.13;;
26820;SDS011;37186;51.394;5.454;2023-02-19T06:26:41;3.30;;;3.20;;
26820;SDS011;37186;51.394;5.454;2023-02-19T06:29:41;3.47;;;3.37;;
26820;SDS011;37186;51.394;5.454;2023-02-19T06:32:42;3.50;;;3.40;;
26820;SDS011;37186;51.394;5.454;2023-02-19T06:35:43;3.33;;;3.23;;
26820;SDS011;37186;51.394;5.454;2023-02-19T06:38:43;3.60;;;3.50;;
26820;SDS011;37186;51.394;5.454;2023-02-19T06:41:44;3.50;;;3.40;;
26820;SDS011;37186;51.394;5.454;2023-02-19T06:44:44;3.40;;;3.30;;
26820;SDS011;37186;51.394;5.454;2023-02-19T06:47:45;3.37;;;3.27;;
26820;SDS011;37186;51.394;5.454;2023-02-19T06:50:45;3.30;;;3.20;;
26820;SDS011;37186;51.394;5.454;2023-02-19T06:53:46;3.50;;;3.40;;
26820;SDS011;37186;51.394;5.454;2023-02-19T06:56:46;3.70;;;3.60;;
26820;SDS011;37186;51.394;5.454;2023-02-19T06:59:47;3.60;;;3.50;;
26820;SDS011;37186;51.394;5.454;2023-02-19T07:02:47;3.43;;;3.33;;
26820;SDS011;37186;51.394;5.454;2023-02-19T07:05:48;3.50;;;3.40;;
26820;SDS011;37186;51.394;5.454;2023-02-19T07:08:49;3.70;;;3.60;;
26820;SDS011;37186;51.394;5.454;2023-02-19T07:11:50;3.70;;;3.60;;
26820;SDS011;37186;51.394;5.454;2023-02-19T07:14:51;3.70;;;3.60;;
26820;SDS011;37186;51.394;5.454;2023-02-19T07:17:51;3.60;;;3.50;;
26820;SDS011;37186;51.394;5.454;2023-02-19T07:20:52;3.60;;;3.50;;
26820;SDS011;37186;51.394;5.454;2023-02-19T07:23:53;3.73;;;3.63;;
26820;SDS011;37186;51.394;5.454;2023-02-19T07:26:53;3.63;;;3.53;;
26820;SDS011;37186;51.394;5.454;2023-02-19T07:29:54;3.73;;;3.63;;
26820;SDS011;37186;51.394;5.454;2023-02-19T07:32:55;3.73;;;3.63;;
26820;SDS011;37186;51.394;5.454;2023-02-19T07:35:55;3.60;;;3.50;;
26820;SDS011;37186;51.394;5.454;2023-02-19T07:38:56;3.80;;;3.70;;
26820;SDS011;37186;51.394;5.454;2023-02-19T07:41:57;3.40;;;3.30;;
26820;SDS011;37186;51.394;5.454;2023-02-19T07:44:58;3.53;;;3.43;;
26820;SDS011;37186;51.394;5.454;2023-02-19T07:47:58;3.60;;;3.50;;
26820;SDS011;37186;51.394;5.454;2023-02-19T07:50:59;3.60;;;3.50;;
26820;SDS011;37186;51.394;5.454;2023-02-19T07:54:02;3.50;;;3.40;;
26820;SDS011;37186;51.394;5.454;2023-02-19T07:57:03;3.60;;;3.50;;
26820;SDS011;37186;51.394;5.454;2023-02-19T08:00:03;3.53;;;3.43;;
26820;SDS011;37186;51.394;5.454;2023-02-19T08:03:04;3.50;;;3.40;;
26820;SDS011;37186;51.394;5.454;2023-02-19T08:06:05;3.30;;;3.20;;
26820;SDS011;37186;51.394;5.454;2023-02-19T08:09:06;3.43;;;3.33;;
26820;SDS011;37186;51.394;5.454;2023-02-19T08:12:08;3.40;;;3.30;;
26820;SDS011;37186;51.394;5.454;2023-02-19T08:15:29;3.33;;;3.23;;
26820;SDS011;37186;51.394;5.454;2023-02-19T08:18:31;3.40;;;3.30;;
26820;SDS011;37186;51.394;5.454;2023-02-19T08:21:32;3.60;;;3.50;;
26820;SDS011;37186;51.394;5.454;2023-02-19T08:24:32;3.80;;;3.70;;
26820;SDS011;37186;51.394;5.454;2023-02-19T08:27:33;3.60;;;3.50;;
26820;SDS011;37186;51.394;5.454;2023-02-19T08:30:33;3.57;;;3.47;;
26820;SDS011;37186;51.394;5.454;2023-02-19T08:33:34;3.93;;;3.83;;
26820;SDS011;37186;51.394;5.454;2023-02-19T08:36:36;4.13;;;4.03;;
26820;SDS011;37186;51.394;5.454;2023-02-19T08:39:37;3.77;;;3.67;;
26820;SDS011;37186;51.394;5.454;2023-02-19T08:42:37;3.90;;;3.80;;
26820;SDS011;37186;51.394;5.454;2023-02-19T08:45:39;4.00;;;3.90;;
26820;SDS011;37186;51.394;5.454;2023-02-19T08:48:40;4.07;;;3.97;;
26820;SDS011;37186;51.394;5.454;2023-02-19T08:51:41;4.20;;;4.10;;
26820;SDS011;37186;51.394;5.454;2023-02-19T08:54:41;4.00;;;3.90;;
26820;SDS011;37186;51.394;5.454;2023-02-19T08:57:42;3.97;;;3.87;;
26820;SDS011;37186;51.394;5.454;2023-02-19T09:00:43;4.20;;;4.10;;
26820;SDS011;37186;51.394;5.454;2023-02-19T09:03:44;4.13;;;4.03;;
26820;SDS011;37186;51.394;5.454;2023-02-19T09:06:45;3.97;;;3.87;;
26820;SDS011;37186;51.394;5.454;2023-02-19T09:09:45;3.73;;;3.63;;
26820;SDS011;37186;51.394;5.454;2023-02-19T09:12:46;4.10;;;4.00;;
26820;SDS011;37186;51.394;5.454;2023-02-19T09:15:46;3.90;;;3.80;;
26820;SDS011;37186;51.394;5.454;2023-02-19T09:18:47;4.03;;;3.93;;
26820;SDS011;37186;51.394;5.454;2023-02-19T09:21:47;3.87;;;3.77;;
26820;SDS011;37186;51.394;5.454;2023-02-19T09:24:48;3.80;;;3.70;;
26820;SDS011;37186;51.394;5.454;2023-02-19T09:27:48;3.67;;;3.57;;
26820;SDS011;37186;51.394;5.454;2023-02-19T09:30:52;3.70;;;3.60;;
26820;SDS011;37186;51.394;5.454;2023-02-19T09:33:53;3.67;;;3.57;;
26820;SDS011;37186;51.394;5.454;2023-02-19T09:36:54;3.77;;;3.67;;
26820;SDS011;37186;51.394;5.454;2023-02-19T09:39:54;3.70;;;3.60;;
26820;SDS011;37186;51.394;5.454;2023-02-19T09:42:55;3.77;;;3.67;;
26820;SDS011;37186;51.394;5.454;2023-02-19T09:46:00;3.70;;;3.60;;
26820;SDS011;37186;51.394;5.454;2023-02-19T09:52:35;3.70;;;3.60;;
26820;SDS011;37186;51.394;5.454;2023-02-19T09:55:41;3.57;;;3.47;;
26820;SDS011;37186;51.394;5.454;2023-02-19T09:58:50;3.47;;;3.37;;
26820;SDS011;37186;51.394;5.454;2023-02-19T10:01:57;3.43;;;3.33;;
26820;SDS011;37186;51.394;5.454;2023-02-19T10:05:03;3.40;;;3.30;;
26820;SDS011;37186;51.394;5.454;2023-02-19T10:08:12;3.40;;;3.30;;
26820;SDS011;37186;51.394;5.454;2023-02-19T10:11:17;3.50;;;3.40;;
26820;SDS011;37186;51.394;5.454;2023-02-19T10:14:26;3.20;;;3.10;;
26820;SDS011;37186;51.394;5.454;2023-02-19T10:17:31;3.30;;;3.20;;
26820;SDS011;37186;51.394;5.454;2023-02-19T10:20:33;3.30;;;3.20;;
26820;SDS011;37186;51.394;5.454;2023-02-19T10:23:34;3.30;;;3.20;;
26820;SDS011;37186;51.394;5.454;2023-02-19T10:26:34;3.13;;;3.03;;
26820;SDS011;37186;51.394;5.454;2023-02-19T10:29:35;3.20;;;3.10;;
26820;SDS011;37186;51.394;5.454;2023-02-19T10:32:36;3.10;;;3.00;;
26820;SDS011;37186;51.394;5.454;2023-02-19T10:38:55;3.23;;;3.13;;
26820;SDS011;37186;51.394;5.454;2023-02-19T10:41:56;3.20;;;3.10;;
26820;SDS011;37186;51.394;5.454;2023-02-19T10:44:59;3.30;;;3.20;;
26820;SDS011;37186;51.394;5.454;2023-02-19T10:48:01;3.00;;;2.90;;
26820;SDS011;37186;51.394;5.454;2023-02-19T10:51:07;3.20;;;3.10;;
26820;SDS011;37186;51.394;5.454;2023-02-19T10:54:14;3.57;;;3.47;;
26820;SDS011;37186;51.394;5.454;2023-02-19T10:57:28;3.37;;;3.27;;
26820;SDS011;37186;51.394;5.454;2023-02-19T11:00:29;3.20;;;3.10;;
26820;SDS011;37186;51.394;5.454;2023-02-19T11:03:30;3.30;;;3.20;;
26820;SDS011;37186;51.394;5.454;2023-02-19T11:06:30;3.20;;;3.10;;
26820;SDS011;37186;51.394;5.454;2023-02-19T11:09:38;3.60;;;3.50;;
26820;SDS011;37186;51.394;5.454;2023-02-19T11:12:45;3.40;;;3.30;;
26820;SDS011;37186;51.394;5.454;2023-02-19T11:15:54;3.70;;;3.60;;
26820;SDS011;37186;51.394;5.454;2023-02-19T11:18:55;3.47;;;3.37;;
26820;SDS011;37186;51.394;5.454;2023-02-19T11:21:57;3.37;;;3.27;;
26820;SDS011;37186;51.394;5.454;2023-02-19T11:25:02;3.50;;;3.40;;
26820;SDS011;37186;51.394;5.454;2023-02-19T11:28:16;3.50;;;3.40;;
26820;SDS011;37186;51.394;5.454;2023-02-19T11:31:35;3.80;;;3.70;;
26820;SDS011;37186;51.394;5.454;2023-02-19T11:34:36;3.67;;;3.57;;
26820;SDS011;37186;51.394;5.454;2023-02-19T11:37:37;3.57;;;3.47;;
26820;SDS011;37186;51.394;5.454;2023-02-19T11:47:57;3.90;;;3.80;;
26820;SDS011;37186;51.394;5.454;2023-02-19T11:51:24;4.00;;;3.90;;
26820;SDS011;37186;51.394;5.454;2023-02-19T11:54:48;3.87;;;3.77;;
26820;SDS011;37186;51.394;5.454;2023-02-19T12:11:46;3.70;;;3.60;;
26820;SDS011;37186;51.394;5.454;2023-02-19T12:38:29;3.33;;;3.23;;
26820;SDS011;37186;51.394;5.454;2023-02-19T12:45:06;3.73;;;3.63;;
26820;SDS011;37186;51.394;5.454;2023-02-19T12:51:38;3.27;;;3.17;;
26820;SDS011;37186;51.394;5.454;2023-02-19T12:54:45;3.47;;;3.37;;
26820;SDS011;37186;51.394;5.454;2023-02-19T12:57:49;3.50;;;3.40;;
26820;SDS011;37186;51.394;5.454;2023-02-19T13:00:52;3.43;;;3.33;;
26820;SDS011;37186;51.394;5.454;2023-02-19T13:04:17;3.53;;;3.43;;
26820;SDS011;37186;51.394;5.454;2023-02-19T13:07:39;3.33;;;3.23;;
26820;SDS011;37186;51.394;5.454;2023-02-19T13:13:56;3.30;;;3.20;;
26820;SDS011;37186;51.394;5.454;2023-02-19T13:17:07;3.50;;;3.40;;
26820;SDS011;37186;51.394;5.454;2023-02-19T13:20:24;3.63;;;3.53;;
26820;SDS011;37186;51.394;5.454;2023-02-19T13:23:34;3.60;;;3.50;;
26820;SDS011;37186;51.394;5.454;2023-02-19T13:37:30;3.67;;;3.57;;
26820;SDS011;37186;51.394;5.454;2023-02-19T13:40:33;3.63;;;3.53;;
26820;SDS011;37186;51.394;5.454;2023-02-19T13:43:43;3.50;;;3.40;;
26820;SDS011;37186;51.394;5.454;2023-02-19T13:46:46;3.57;;;3.47;;
26820;SDS011;37186;51.394;5.454;2023-02-19T13:49:48;3.50;;;3.40;;
26820;SDS011;37186;51.394;5.454;2023-02-19T13:52:49;3.43;;;3.33;;
26820;SDS011;37186;51.394;5.454;2023-02-19T14:04:06;3.23;;;3.13;;
26820;SDS011;37186;51.394;5.454;2023-02-19T14:10:10;3.50;;;3.40;;
26820;SDS011;37186;51.394;5.454;2023-02-19T14:13:36;3.33;;;3.23;;
26820;SDS011;37186;51.394;5.454;2023-02-19T14:16:55;3.30;;;3.20;;
26820;SDS011;37186;51.394;5.454;2023-02-19T14:19:57;3.20;;;3.10;;
26820;SDS011;37186;51.394;5.454;2023-02-19T14:23:21;3.40;;;3.30;;
26820;SDS011;37186;51.394;5.454;2023-02-19T14:26:23;3.23;;;3.13;;
26820;SDS011;37186;51.394;5.454;2023-02-19T14:29:25;3.43;;;3.33;;
26820;SDS011;37186;51.394;5.454;2023-02-19T14:32:28;3.40;;;3.30;;
26820;SDS011;37186;51.394;5.454;2023-02-19T14:35:31;3.70;;;3.60;;
26820;SDS011;37186;51.394;5.454;2023-02-19T14:38:38;3.90;;;3.80;;
26820;SDS011;37186;51.394;5.454;2023-02-19T14:41:50;3.70;;;3.60;;
26820;SDS011;37186;51.394;5.454;2023-02-19T14:44:55;3.50;;;3.40;;
26820;SDS011;37186;51.394;5.454;2023-02-19T14:47:59;3.40;;;3.30;;
26820;SDS011;37186;51.394;5.454;2023-02-19T14:51:04;3.60;;;3.50;;
26820;SDS011;37186;51.394;5.454;2023-02-19T14:54:17;3.43;;;3.33;;
26820;SDS011;37186;51.394;5.454;2023-02-19T14:57:22;3.53;;;3.43;;
26820;SDS011;37186;51.394;5.454;2023-02-19T15:00:41;3.40;;;3.30;;
26820;SDS011;37186;51.394;5.454;2023-02-19T15:03:42;3.27;;;3.17;;
26820;SDS011;37186;51.394;5.454;2023-02-19T15:06:48;3.40;;;3.30;;
26820;SDS011;37186;51.394;5.454;2023-02-19T15:09:53;3.30;;;3.20;;
26820;SDS011;37186;51.394;5.454;2023-02-19T15:13:01;3.30;;;3.20;;
26820;SDS011;37186;51.394;5.454;2023-02-19T15:16:04;3.20;;;3.10;;
26820;SDS011;37186;51.394;5.454;2023-02-19T15:19:06;3.30;;;3.20;;
26820;SDS011;37186;51.394;5.454;2023-02-19T15:22:16;3.40;;;3.30;;
26820;SDS011;37186;51.394;5.454;2023-02-19T15:25:21;3.37;;;3.27;;
26820;SDS011;37186;51.394;5.454;2023-02-19T15:31:23;3.50;;;3.40;;
26820;SDS011;37186;51.394;5.454;2023-02-19T15:34:25;3.50;;;3.40;;
26820;SDS011;37186;51.394;5.454;2023-02-19T15:37:28;3.43;;;3.33;;
26820;SDS011;37186;51.394;5.454;2023-02-19T15:40:31;3.40;;;3.30;;
26820;SDS011;37186;51.394;5.454;2023-02-19T15:43:39;3.30;;;3.20;;
26820;SDS011;37186;51.394;5.454;2023-02-19T15:46:44;3.30;;;3.20;;
26820;SDS011;37186;51.394;5.454;2023-02-19T15:49:57;3.27;;;3.17;;
26820;SDS011;37186;51.394;5.454;2023-02-19T15:56:13;3.40;;;3.30;;
26820;SDS011;37186;51.394;5.454;2023-02-19T16:02:26;3.27;;;3.17;;
26820;SDS011;37186;51.394;5.454;2023-02-19T16:05:26;3.20;;;3.10;;
26820;SDS011;37186;51.394;5.454;2023-02-19T16:11:52;3.40;;;3.30;;
26820;SDS011;37186;51.394;5.454;2023-02-19T16:14:55;3.30;;;3.20;;
26820;SDS011;37186;51.394;5.454;2023-02-19T16:17:56;3.33;;;3.23;;
26820;SDS011;37186;51.394;5.454;2023-02-19T16:20:57;3.33;;;3.23;;
26820;SDS011;37186;51.394;5.454;2023-02-19T16:24:00;3.43;;;3.33;;
26820;SDS011;37186;51.394;5.454;2023-02-19T16:27:12;3.43;;;3.33;;
26820;SDS011;37186;51.394;5.454;2023-02-19T16:30:29;3.40;;;3.30;;
26820;SDS011;37186;51.394;5.454;2023-02-19T16:33:42;3.30;;;3.20;;
26820;SDS011;37186;51.394;5.454;2023-02-19T16:36:45;3.40;;;3.30;;
26820;SDS011;37186;51.394;5.454;2023-02-19T16:39:49;3.60;;;3.50;;
26820;SDS011;37186;51.394;5.454;2023-02-19T16:46:13;3.33;;;3.23;;
26820;SDS011;37186;51.394;5.454;2023-02-19T16:49:14;3.40;;;3.30;;
26820;SDS011;37186;51.394;5.454;2023-02-19T16:52:15;3.40;;;3.30;;
26820;SDS011;37186;51.394;5.454;2023-02-19T16:55:15;3.30;;;3.20;;
26820;SDS011;37186;51.394;5.454;2023-02-19T16:58:16;3.23;;;3.13;;
26820;SDS011;37186;51.394;5.454;2023-02-19T17:01:17;3.30;;;3.20;;
26820;SDS011;37186;51.394;5.454;2023-02-19T17:04:17;3.40;;;3.30;;
26820;SDS011;37186;51.394;5.454;2023-02-19T17:07:18;3.30;;;3.20;;
26820;SDS011;37186;51.394;5.454;2023-02-19T17:10:20;3.20;;;3.10;;
26820;SDS011;37186;51.394;5.454;2023-02-19T17:13:23;3.17;;;3.07;;
26820;SDS011;37186;51.394;5.454;2023-02-19T17:16:24;3.07;;;2.97;;
26820;SDS011;37186;51.394;5.454;2023-02-19T17:19:27;3.20;;;3.10;;
26820;SDS011;37186;51.394;5.454;2023-02-19T17:22:27;3.10;;;3.00;;
26820;SDS011;37186;51.394;5.454;2023-02-19T17:25:28;3.10;;;3.00;;
26820;SDS011;37186;51.394;5.454;2023-02-19T17:28:28;3.17;;;3.07;;
26820;SDS011;37186;51.394;5.454;2023-02-19T17:31:29;3.10;;;3.00;;
26820;SDS011;37186;51.394;5.454;2023-02-19T17:34:29;3.23;;;3.13;;
26820;SDS011;37186;51.394;5.454;2023-02-19T17:37:30;3.20;;;3.10;;
26820;SDS011;37186;51.394;5.454;2023-02-19T17:40:30;3.00;;;2.90;;
26820;SDS011;37186;51.394;5.454;2023-02-19T17:43:31;3.27;;;3.17;;
26820;SDS011;37186;51.394;5.454;2023-02-19T17:46:32;3.17;;;3.07;;
26820;SDS011;37186;51.394;5.454;2023-02-19T17:49:33;3.20;;;3.10;;
26820;SDS011;37186;51.394;5.454;2023-02-19T17:52:35;3.00;;;2.90;;
26820;SDS011;37186;51.394;5.454;2023-02-19T17:55:35;2.97;;;2.87;;
26820;SDS011;37186;51.394;5.454;2023-02-19T17:58:36;3.03;;;2.93;;
26820;SDS011;37186;51.394;5.454;2023-02-19T18:01:36;3.07;;;2.97;;
26820;SDS011;37186;51.394;5.454;2023-02-19T18:04:37;3.00;;;2.90;;
26820;SDS011;37186;51.394;5.454;2023-02-19T18:07:38;3.20;;;3.10;;
26820;SDS011;37186;51.394;5.454;2023-02-19T18:10:39;3.10;;;3.00;;
26820;SDS011;37186;51.394;5.454;2023-02-19T18:13:39;2.93;;;2.83;;
26820;SDS011;37186;51.394;5.454;2023-02-19T18:16:43;2.97;;;2.87;;
26820;SDS011;37186;51.394;5.454;2023-02-19T18:19:45;3.00;;;2.90;;
26820;SDS011;37186;51.394;5.454;2023-02-19T18:22:46;3.00;;;2.90;;
26820;SDS011;37186;51.394;5.454;2023-02-19T18:25:46;3.00;;;2.90;;
26820;SDS011;37186;51.394;5.454;2023-02-19T18:28:47;2.90;;;2.80;;
26820;SDS011;37186;51.394;5.454;2023-02-19T18:31:47;3.10;;;3.00;;
26820;SDS011;37186;51.394;5.454;2023-02-19T18:34:49;3.00;;;2.90;;
26820;SDS011;37186;51.394;5.454;2023-02-19T18:37:51;3.00;;;2.90;;
26820;SDS011;37186;51.394;5.454;2023-02-19T18:40:52;3.07;;;2.97;;
26820;SDS011;37186;51.394;5.454;2023-02-19T18:43:53;2.93;;;2.83;;
26820;SDS011;37186;51.394;5.454;2023-02-19T18:46:53;3.00;;;2.90;;
26820;SDS011;37186;51.394;5.454;2023-02-19T18:49:54;3.03;;;2.93;;
26820;SDS011;37186;51.394;5.454;2023-02-19T18:52:56;2.97;;;2.87;;
26820;SDS011;37186;51.394;5.454;2023-02-19T18:55:56;2.77;;;2.70;;
26820;SDS011;37186;51.394;5.454;2023-02-19T18:58:59;3.00;;;2.90;;
26820;SDS011;37186;51.394;5.454;2023-02-19T19:01:59;2.80;;;2.70;;
26820;SDS011;37186;51.394;5.454;2023-02-19T19:05:00;2.90;;;2.80;;
26820;SDS011;37186;51.394;5.454;2023-02-19T19:08:01;2.90;;;2.80;;
26820;SDS011;37186;51.394;5.454;2023-02-19T19:11:01;3.07;;;2.97;;
26820;SDS011;37186;51.394;5.454;2023-02-19T19:14:02;2.90;;;2.80;;
26820;SDS011;37186;51.394;5.454;2023-02-19T19:17:03;2.90;;;2.80;;
26820;SDS011;37186;51.394;5.454;2023-02-19T19:20:04;2.80;;;2.70;;
26820;SDS011;37186;51.394;5.454;2023-02-19T19:23:05;2.90;;;2.80;;
26820;SDS011;37186;51.394;5.454;2023-02-19T19:26:06;2.63;;;2.63;;
26820;SDS011;37186;51.394;5.454;2023-02-19T19:29:07;2.90;;;2.80;;
26820;SDS011;37186;51.394;5.454;2023-02-19T19:32:08;2.80;;;2.70;;
26820;SDS011;37186;51.394;5.454;2023-02-19T19:35:09;2.80;;;2.70;;
26820;SDS011;37186;51.394;5.454;2023-02-19T19:38:09;2.73;;;2.67;;
26820;SDS011;37186;51.394;5.454;2023-02-19T19:41:12;2.87;;;2.77;;
26820;SDS011;37186;51.394;5.454;2023-02-19T19:44:16;2.90;;;2.80;;
26820;SDS011;37186;51.394;5.454;2023-02-19T19:47:17;2.60;;;2.60;;
26820;SDS011;37186;51.394;5.454;2023-02-19T19:50:18;2.87;;;2.77;;
26820;SDS011;37186;51.394;5.454;2023-02-19T19:53:18;2.67;;;2.67;;
26820;SDS011;37186;51.394;5.454;2023-02-19T19:56:19;2.90;;;2.80;;
26820;SDS011;37186;51.394;5.454;2023-02-19T19:59:20;2.90;;;2.80;;
26820;SDS011;37186;51.394;5.454;2023-02-19T20:02:21;2.77;;;2.70;;
26820;SDS011;37186;51.394;5.454;2023-02-19T20:05:22;2.60;;;2.60;;
26820;SDS011;37186;51.394;5.454;2023-02-19T20:08:23;2.70;;;2.70;;
26820;SDS011;37186;51.394;5.454;2023-02-19T20:11:23;2.80;;;2.70;;
26820;SDS011;37186;51.394;5.454;2023-02-19T20:14:24;2.90;;;2.80;;
26820;SDS011;37186;51.394;5.454;2023-02-19T20:17:25;2.60;;;2.60;;
26820;SDS011;37186;51.394;5.454;2023-02-19T20:20:27;2.87;;;2.77;;
26820;SDS011;37186;51.394;5.454;2023-02-19T20:23:28;2.90;;;2.80;;
26820;SDS011;37186;51.394;5.454;2023-02-19T20:26:29;2.90;;;2.80;;
26820;SDS011;37186;51.394;5.454;2023-02-19T20:29:31;2.80;;;2.70;;
26820;SDS011;37186;51.394;5.454;2023-02-19T20:32:33;2.80;;;2.70;;
26820;SDS011;37186;51.394;5.454;2023-02-19T20:35:33;2.70;;;2.67;;
26820;SDS011;37186;51.394;5.454;2023-02-19T20:38:34;2.63;;;2.63;;
26820;SDS011;37186;51.394;5.454;2023-02-19T20:41:35;2.50;;;2.50;;